createdAt,value
2017-11-08T00:01:49.150Z,28.23
2017-11-08T00:04:19.722Z,23.47
2017-11-08T00:06:47.477Z,23.90
2017-11-08T00:09:15.038Z,25.10
2017-11-08T00:11:42.821Z,25.13
2017-11-08T00:14:10.346Z,24.57
2017-11-08T00:16:37.989Z,25.90
2017-11-08T00:19:05.549Z,26.47
2017-11-08T00:21:33.099Z,26.00
2017-11-08T00:24:00.710Z,24.87
2017-11-08T00:26:28.487Z,20.57
2017-11-08T00:28:56.036Z,24.20
2017-11-08T00:31:23.666Z,23.70
2017-11-08T00:33:51.243Z,22.37
2017-11-08T00:36:18.820Z,21.87
2017-11-08T00:38:46.398Z,23.63
2017-11-08T00:41:13.985Z,25.13
2017-11-08T00:43:41.887Z,23.00
2017-11-08T00:46:09.454Z,23.60
2017-11-08T00:48:36.974Z,25.60
2017-11-08T00:51:04.526Z,26.33
2017-11-08T00:53:32.368Z,25.90
2017-11-08T00:55:59.900Z,21.97
2017-11-08T00:58:27.698Z,23.73
2017-11-08T01:01:00.228Z,26.60
2017-11-08T01:03:27.772Z,23.80
2017-11-08T01:05:55.282Z,24.40
2017-11-08T01:08:22.890Z,24.43
2017-11-08T01:10:50.446Z,25.50
2017-11-08T01:13:17.962Z,25.93
2017-11-08T01:15:46.128Z,25.50
2017-11-08T01:18:13.677Z,23.87
2017-11-08T01:20:41.202Z,26.73
2017-11-08T01:23:08.766Z,23.83
2017-11-08T01:25:36.554Z,24.70
2017-11-08T01:28:04.186Z,25.83
2017-11-08T01:30:31.806Z,24.30
2017-11-08T01:32:59.338Z,25.30
2017-11-08T01:35:26.862Z,25.73
2017-11-08T01:37:56.214Z,23.97
2017-11-08T01:40:23.794Z,24.17
2017-11-08T01:42:51.331Z,24.57
2017-11-08T01:45:18.893Z,21.33
2017-11-08T01:47:46.421Z,22.00
2017-11-08T01:50:13.947Z,23.10
2017-11-08T01:52:41.551Z,23.50
2017-11-08T01:55:09.098Z,25.40
2017-11-08T01:57:36.704Z,22.90
2017-11-08T02:00:06.032Z,22.83
2017-11-08T02:02:33.556Z,23.67
2017-11-08T02:05:01.089Z,23.80
2017-11-08T02:07:28.658Z,24.17
2017-11-08T02:09:56.200Z,22.80
2017-11-08T02:12:23.719Z,22.73
2017-11-08T02:14:51.343Z,24.67
2017-11-08T02:17:18.938Z,21.60
2017-11-08T02:19:46.503Z,22.60
2017-11-08T02:22:14.101Z,24.67
2017-11-08T02:24:41.646Z,24.67
2017-11-08T02:27:09.194Z,25.47
2017-11-08T02:29:36.759Z,23.67
2017-11-08T02:32:04.347Z,21.80
2017-11-08T02:34:31.899Z,25.07
2017-11-08T02:36:59.460Z,24.50
2017-11-08T02:39:27.030Z,23.87
2017-11-08T02:41:54.555Z,25.67
2017-11-08T02:44:22.110Z,24.10
2017-11-08T02:47:06.236Z,24.77
2017-11-08T02:49:33.790Z,22.40
2017-11-08T02:52:01.327Z,24.53
2017-11-08T02:54:28.902Z,24.50
2017-11-08T02:56:56.417Z,25.13
2017-11-08T02:59:23.949Z,24.97
2017-11-08T03:01:51.574Z,22.57
2017-11-08T03:04:22.018Z,25.27
2017-11-08T03:06:49.535Z,24.97
2017-11-08T03:09:17.135Z,24.03
2017-11-08T03:11:44.643Z,24.10
2017-11-08T03:14:12.178Z,22.40
2017-11-08T03:16:39.725Z,23.07
2017-11-08T03:19:07.233Z,23.30
2017-11-08T03:21:34.753Z,23.57
2017-11-08T03:24:02.344Z,24.27
2017-11-08T03:26:29.858Z,25.43
2017-11-08T03:28:57.381Z,24.23
2017-11-08T03:31:24.961Z,22.00
2017-11-08T03:33:52.494Z,21.50
2017-11-08T03:36:20.017Z,22.73
2017-11-08T03:38:47.574Z,22.50
2017-11-08T03:41:15.201Z,23.20
2017-11-08T03:43:42.756Z,23.20
2017-11-08T03:46:10.306Z,22.97
2017-11-08T03:48:37.899Z,24.07
2017-11-08T03:51:05.519Z,22.33
2017-11-08T03:53:33.102Z,21.45
2017-11-08T03:56:00.701Z,22.50
2017-11-08T03:58:28.224Z,22.50
2017-11-08T04:00:55.780Z,22.97
2017-11-08T04:03:23.312Z,21.90
2017-11-08T04:05:50.834Z,21.48
2017-11-08T04:08:18.444Z,23.30
2017-11-08T04:10:46.296Z,23.50
2017-11-08T04:13:13.841Z,22.40
2017-11-08T04:15:41.431Z,24.40
2017-11-08T04:18:08.972Z,24.67
2017-11-08T04:20:36.512Z,23.67
2017-11-08T04:23:04.079Z,23.60
2017-11-08T04:25:31.613Z,22.33
2017-11-08T04:27:59.136Z,23.00
2017-11-08T04:30:26.760Z,23.90
2017-11-08T04:32:54.339Z,22.63
2017-11-08T04:35:22.155Z,22.30
2017-11-08T04:37:49.731Z,20.43
2017-11-08T04:40:17.266Z,24.43
2017-11-08T04:42:44.851Z,23.08
2017-11-08T04:45:12.425Z,22.00
2017-11-08T04:47:39.972Z,21.53
2017-11-08T04:50:07.515Z,20.43
2017-11-08T04:52:35.058Z,20.77
2017-11-08T04:55:02.915Z,19.90
2017-11-08T04:57:30.496Z,21.77
2017-11-08T04:59:58.061Z,21.30
2017-11-08T05:02:25.652Z,20.83
2017-11-08T05:04:53.178Z,20.50
2017-11-08T05:07:20.733Z,21.20
2017-11-08T05:09:48.327Z,21.20
2017-11-08T05:12:15.898Z,20.70
2017-11-08T05:14:43.445Z,18.83
2017-11-08T05:17:11.065Z,20.50
2017-11-08T05:19:38.618Z,19.50
2017-11-08T05:22:06.117Z,18.07
2017-11-08T05:24:33.935Z,18.57
2017-11-08T05:27:01.869Z,20.63
2017-11-08T05:29:29.403Z,19.20
2017-11-08T05:31:57.042Z,20.27
2017-11-08T05:34:24.627Z,17.53
2017-11-08T05:36:52.366Z,20.33
2017-11-08T05:39:19.957Z,19.13
2017-11-08T05:41:47.473Z,19.90
2017-11-08T05:44:15.019Z,18.03
2017-11-08T05:46:43.409Z,21.67
2017-11-08T05:49:11.430Z,19.50
2017-11-08T05:51:39.865Z,23.30
2017-11-08T05:54:07.685Z,19.90
2017-11-08T05:56:35.234Z,21.27
2017-11-08T05:59:02.783Z,20.53
2017-11-08T06:01:30.344Z,20.70
2017-11-08T06:03:58.475Z,23.53
2017-11-08T06:06:25.995Z,21.30
2017-11-08T06:08:53.563Z,22.43
2017-11-08T06:11:21.102Z,21.93
2017-11-08T06:13:48.620Z,21.47
2017-11-08T06:16:16.197Z,22.00
2017-11-08T06:18:43.728Z,21.53
2017-11-08T06:21:11.299Z,22.50
2017-11-08T06:23:38.897Z,19.30
2017-11-08T06:26:06.444Z,22.53
2017-11-08T06:28:33.965Z,23.57
2017-11-08T06:31:02.847Z,24.80
2017-11-08T06:33:30.570Z,20.30
2017-11-08T06:35:58.106Z,25.40
2017-11-08T06:38:25.965Z,21.93
2017-11-08T06:40:53.478Z,26.67
2017-11-08T06:43:21.043Z,22.17
2017-11-08T06:45:48.669Z,20.80
2017-11-08T06:48:16.280Z,23.17
2017-11-08T06:50:43.817Z,24.15
2017-11-08T06:53:17.331Z,20.97
2017-11-08T06:55:48.448Z,19.20
2017-11-08T06:58:16.020Z,21.40
2017-11-08T07:00:43.582Z,22.83
2017-11-08T07:03:11.094Z,21.13
2017-11-08T07:05:38.641Z,21.40
2017-11-08T07:08:06.202Z,23.87
2017-11-08T07:10:33.722Z,23.90
2017-11-08T07:13:01.289Z,24.27
2017-11-08T07:15:28.883Z,24.07
2017-11-08T07:17:56.418Z,24.60
2017-11-08T07:20:23.934Z,24.93
2017-11-08T07:22:51.614Z,21.93
2017-11-08T07:25:19.214Z,21.70
2017-11-08T07:27:46.769Z,24.00
2017-11-08T07:30:14.406Z,26.50
2017-11-08T07:32:41.951Z,27.20
2017-11-08T07:35:09.498Z,23.53
2017-11-08T07:37:37.170Z,24.20
2017-11-08T07:40:05.729Z,24.13
2017-11-08T07:42:33.270Z,25.07
2017-11-08T07:45:00.853Z,27.57
2017-11-08T07:47:28.422Z,26.83
2017-11-08T07:49:56.014Z,24.90
2017-11-08T07:52:23.660Z,25.53
2017-11-08T07:54:53.028Z,27.20
2017-11-08T07:57:20.600Z,26.70
2017-11-08T07:59:49.969Z,24.37
2017-11-08T08:02:17.534Z,24.70
2017-11-08T08:04:45.256Z,22.97
2017-11-08T08:07:12.770Z,27.87
2017-11-08T08:09:40.343Z,26.90
2017-11-08T08:12:08.212Z,27.27
2017-11-08T08:14:35.776Z,27.87
2017-11-08T08:17:03.382Z,25.93
2017-11-08T08:19:30.966Z,25.10
2017-11-08T08:21:58.499Z,26.87
2017-11-08T08:24:26.088Z,25.93
2017-11-08T08:26:53.663Z,26.10
2017-11-08T08:29:22.082Z,27.03
2017-11-08T08:31:49.710Z,27.33
2017-11-08T08:34:17.236Z,26.20
2017-11-08T08:36:44.741Z,25.90
2017-11-08T08:39:12.297Z,26.90
2017-11-08T08:41:39.811Z,25.50
2017-11-08T08:44:07.350Z,27.33
2017-11-08T08:46:34.919Z,26.57
2017-11-08T08:49:02.506Z,25.80
2017-11-08T08:51:30.053Z,24.10
2017-11-08T08:53:57.644Z,26.20
2017-11-08T08:56:25.215Z,23.70
2017-11-08T08:58:52.733Z,24.57
2017-11-08T09:01:20.364Z,23.33
2017-11-08T09:03:47.902Z,21.43
2017-11-08T09:06:15.423Z,22.67
2017-11-08T09:08:43.037Z,26.40
2017-11-08T09:11:10.571Z,27.60
2017-11-08T09:13:38.111Z,24.90
2017-11-08T09:16:05.736Z,22.37
2017-11-08T09:18:33.327Z,22.03
2017-11-08T09:21:00.863Z,22.63
2017-11-08T09:23:31.167Z,28.00
2017-11-08T09:25:58.782Z,24.37
2017-11-08T09:28:26.310Z,21.03
2017-11-08T09:30:53.951Z,24.87
2017-11-08T09:33:21.496Z,23.67
2017-11-08T09:35:49.101Z,24.33
2017-11-08T09:38:16.775Z,21.80
2017-11-08T09:40:44.319Z,23.60
2017-11-08T09:43:12.611Z,24.60
2017-11-08T09:45:40.265Z,23.97
2017-11-08T09:48:08.183Z,23.80
2017-11-08T09:50:35.783Z,22.93
2017-11-08T09:53:04.955Z,25.00
2017-11-08T09:55:32.478Z,22.80
2017-11-08T09:58:02.832Z,20.83
2017-11-08T10:00:30.469Z,25.37
2017-11-08T10:02:58.008Z,26.30
2017-11-08T10:05:25.609Z,21.60
2017-11-08T10:07:53.196Z,21.43
2017-11-08T10:10:20.745Z,22.70
2017-11-08T10:12:48.290Z,21.33
2017-11-08T10:15:15.923Z,23.13
2017-11-08T10:17:43.434Z,22.90
2017-11-08T10:20:10.967Z,20.50
2017-11-08T10:22:38.607Z,25.13
2017-11-08T10:25:06.149Z,23.90
2017-11-08T10:27:33.709Z,24.83
2017-11-08T10:30:01.421Z,21.67
2017-11-08T10:32:29.051Z,25.27
2017-11-08T10:34:56.590Z,24.17
2017-11-08T10:37:24.136Z,25.00
2017-11-08T10:39:51.734Z,23.33
2017-11-08T10:42:19.227Z,23.00
2017-11-08T10:44:46.765Z,22.87
2017-11-08T10:47:14.335Z,25.60
2017-11-08T10:49:42.097Z,26.87
2017-11-08T10:52:09.650Z,25.47
2017-11-08T10:54:37.317Z,26.37
2017-11-08T10:57:04.844Z,25.90
2017-11-08T10:59:32.374Z,25.57
2017-11-08T11:01:59.978Z,22.00
2017-11-08T11:04:27.668Z,21.90
2017-11-08T11:06:55.246Z,25.30
2017-11-08T11:09:22.878Z,24.90
2017-11-08T11:11:50.426Z,24.50
2017-11-08T11:14:17.978Z,25.70
2017-11-08T11:16:45.565Z,24.47
2017-11-08T11:19:13.165Z,23.20
2017-11-08T11:21:40.720Z,23.33
2017-11-08T11:24:13.182Z,23.50
2017-11-08T11:26:42.456Z,21.83
2017-11-08T11:29:10.915Z,23.83
2017-11-08T11:31:38.525Z,23.50
2017-11-08T11:34:06.304Z,23.47
2017-11-08T11:36:33.859Z,23.17
2017-11-08T11:39:01.462Z,22.43
2017-11-08T11:41:29.070Z,23.23
2017-11-08T11:43:56.644Z,23.40
2017-11-08T11:46:24.242Z,24.60
2017-11-08T11:48:53.580Z,25.80
2017-11-08T11:51:26.367Z,22.00
2017-11-08T11:53:53.955Z,23.83
2017-11-08T11:56:21.484Z,26.17
2017-11-08T11:58:49.154Z,23.97
2017-11-08T12:01:16.788Z,24.30
2017-11-08T12:03:44.370Z,21.60
2017-11-08T12:06:11.950Z,24.50
2017-11-08T12:08:39.557Z,23.60
2017-11-08T12:11:07.134Z,22.33
2017-11-08T12:13:34.703Z,21.17
2017-11-08T12:16:02.280Z,24.50
2017-11-08T12:18:29.866Z,23.70
2017-11-08T12:20:57.399Z,25.07
2017-11-08T12:23:24.980Z,22.97
2017-11-08T12:25:52.597Z,24.13
2017-11-08T12:28:20.235Z,22.30
2017-11-08T12:30:47.796Z,26.57
2017-11-08T12:33:15.328Z,27.27
2017-11-08T12:35:49.482Z,25.37
2017-11-08T12:38:17.069Z,26.13
2017-11-08T12:40:44.691Z,26.00
2017-11-08T12:43:14.152Z,24.33
2017-11-08T12:45:45.534Z,27.77
2017-11-08T12:48:13.722Z,27.07
2017-11-08T12:50:42.330Z,28.17
2017-11-08T12:53:11.177Z,28.40
2017-11-08T12:55:40.519Z,27.93
2017-11-08T12:58:08.323Z,28.40
2017-11-08T13:00:35.961Z,27.43
2017-11-08T13:03:03.727Z,28.07
2017-11-08T13:05:35.214Z,29.90
2017-11-08T13:08:05.644Z,30.10
2017-11-08T13:13:29.273Z,27.17
2017-11-08T13:15:56.896Z,35.60
2017-11-08T13:18:24.475Z,37.80
2017-11-08T13:20:52.084Z,44.53
2017-11-08T13:23:19.638Z,45.37
2017-11-08T13:25:47.198Z,40.33
2017-11-08T13:28:14.805Z,31.73
2017-11-08T13:30:42.410Z,28.00
2017-11-08T13:33:09.996Z,29.83
2017-11-08T13:35:38.407Z,26.67
2017-11-08T13:38:06.675Z,30.80
2017-11-08T13:40:34.247Z,32.00
2017-11-08T13:43:02.479Z,32.90
2017-11-08T13:45:30.091Z,32.17
2017-11-08T13:47:57.669Z,33.00
2017-11-08T13:50:25.222Z,33.57
2017-11-08T13:52:52.834Z,31.60
2017-11-08T13:55:20.940Z,32.07
2017-11-08T13:57:49.379Z,34.40
2017-11-08T14:00:17.044Z,37.53
2017-11-08T14:02:44.646Z,34.20
2017-11-08T14:05:12.202Z,35.07
2017-11-08T14:07:39.822Z,31.80
2017-11-08T14:10:07.395Z,34.57
2017-11-08T14:12:34.952Z,34.60
2017-11-08T14:15:02.514Z,34.93
2017-11-08T14:17:30.110Z,34.80
2017-11-08T14:19:57.624Z,46.50
2017-11-08T14:22:25.747Z,50.00
2017-11-08T14:24:53.444Z,59.30
2017-11-08T14:27:22.923Z,49.20
2017-11-08T14:29:52.363Z,49.13
2017-11-08T14:32:20.020Z,55.87
2017-11-08T14:34:47.577Z,48.30
2017-11-08T14:37:15.095Z,39.60
2017-11-08T14:39:42.711Z,39.53
2017-11-08T14:42:15.795Z,42.70
2017-11-08T14:44:44.399Z,43.23
2017-11-08T14:47:15.864Z,44.83
2017-11-08T14:49:44.255Z,42.17
2017-11-08T14:52:12.468Z,42.83
2017-11-08T14:54:40.076Z,38.93
2017-11-08T14:57:08.400Z,45.10
2017-11-08T14:59:36.475Z,45.70
2017-11-08T15:02:04.066Z,40.37
2017-11-08T15:04:31.582Z,38.33
2017-11-08T15:06:59.179Z,42.17
2017-11-08T15:09:26.739Z,39.40
2017-11-08T15:11:58.371Z,36.87
2017-11-08T15:14:26.740Z,32.77
2017-11-08T15:16:54.417Z,33.57
2017-11-08T15:19:21.985Z,36.97
2017-11-08T15:21:49.623Z,36.70
2017-11-08T15:24:18.408Z,32.20
2017-11-08T15:26:47.578Z,35.37
2017-11-08T15:29:15.205Z,39.70
2017-11-08T15:31:42.826Z,52.80
2017-11-08T15:34:10.348Z,47.77
2017-11-08T15:36:37.992Z,40.70
2017-11-08T15:39:06.313Z,41.47
2017-11-08T15:41:34.578Z,41.10
2017-11-08T15:44:02.131Z,39.60
2017-11-08T15:46:32.538Z,32.57
2017-11-08T15:49:02.939Z,31.33
2017-11-08T15:51:30.546Z,35.10
2017-11-08T15:53:58.824Z,35.70
2017-11-08T15:56:26.697Z,33.47
2017-11-08T15:58:54.359Z,34.87
2017-11-08T16:01:23.920Z,35.47
2017-11-08T16:03:51.583Z,36.20
2017-11-08T16:06:19.246Z,34.97
2017-11-08T16:09:02.940Z,33.87
2017-11-08T16:11:33.442Z,32.70
2017-11-08T16:14:01.132Z,27.30
2017-11-08T16:16:28.712Z,28.07
2017-11-08T16:18:56.457Z,26.87
2017-11-08T16:21:24.088Z,31.13
2017-11-08T16:23:52.471Z,29.63
2017-11-08T16:26:20.257Z,30.98
2017-11-08T16:28:47.944Z,30.53
2017-11-08T16:31:15.609Z,36.97
2017-11-08T16:33:43.415Z,30.50
2017-11-08T16:36:10.995Z,30.37
2017-11-08T16:38:38.558Z,33.87
2017-11-08T16:41:07.098Z,37.70
2017-11-08T16:43:34.620Z,38.27
2017-11-08T16:46:02.193Z,41.37
2017-11-08T16:48:29.738Z,47.10
2017-11-08T16:50:57.289Z,50.90
2017-11-08T16:53:24.907Z,55.03
2017-11-08T16:55:52.477Z,64.70
2017-11-08T16:58:20.036Z,71.67
2017-11-08T17:00:47.654Z,60.57
2017-11-08T17:03:15.283Z,55.20
2017-11-08T17:05:42.926Z,61.67
2017-11-08T17:08:10.528Z,51.47
2017-11-08T17:10:38.075Z,46.35
2017-11-08T17:13:05.616Z,36.67
2017-11-08T17:15:33.823Z,35.80
2017-11-08T17:18:01.707Z,34.00
2017-11-08T17:20:29.281Z,34.20
2017-11-08T17:22:56.863Z,30.40
2017-11-08T17:25:24.443Z,31.30
2017-11-08T17:27:54.959Z,36.10
2017-11-08T17:30:22.575Z,35.27
2017-11-08T17:32:50.208Z,32.03
2017-11-08T17:35:17.825Z,34.37
2017-11-08T17:37:48.469Z,32.87
2017-11-08T17:40:16.144Z,22.57
2017-11-08T17:42:43.816Z,30.33
2017-11-08T17:45:11.456Z,35.37
2017-11-08T17:50:12.044Z,33.10
2017-11-08T17:52:39.652Z,34.40
2017-11-08T17:55:07.205Z,41.57
2017-11-08T17:57:34.859Z,44.67
2017-11-08T18:00:02.410Z,36.93
2017-11-08T18:02:30.391Z,47.72
2017-11-08T18:04:58.011Z,48.57
2017-11-08T18:07:25.700Z,51.90
2017-11-08T18:09:53.327Z,58.77
2017-11-08T18:12:21.829Z,56.20
2017-11-08T18:14:49.570Z,56.87
2017-11-08T18:17:17.166Z,51.00
2017-11-08T18:19:45.687Z,51.13
2017-11-08T18:22:13.548Z,56.90
2017-11-08T18:24:41.147Z,47.80
2017-11-08T18:27:08.971Z,53.90
2017-11-08T18:29:36.498Z,49.57
2017-11-08T18:32:04.076Z,54.57
2017-11-08T18:34:31.599Z,47.87
2017-11-08T18:36:59.202Z,50.50
2017-11-08T18:39:26.801Z,68.30
2017-11-08T18:41:54.396Z,71.77
2017-11-08T18:44:21.981Z,78.03
2017-11-08T18:46:50.320Z,84.83
2017-11-08T18:49:17.839Z,93.40
2017-11-08T18:51:45.666Z,90.83
2017-11-08T18:54:13.354Z,82.60
2017-11-08T18:56:40.888Z,90.57
2017-11-08T18:59:08.423Z,85.63
2017-11-08T19:01:36.029Z,82.83
2017-11-08T19:04:03.644Z,81.07
2017-11-08T19:06:31.223Z,72.57
2017-11-08T19:09:05.639Z,74.23
2017-11-08T19:11:33.251Z,80.00
2017-11-08T19:14:01.264Z,64.90
2017-11-08T19:16:33.664Z,69.50
2017-11-08T19:19:01.899Z,65.60
2017-11-08T19:21:30.808Z,72.70
2017-11-08T19:24:07.396Z,69.37
2017-11-08T19:26:35.004Z,62.40
2017-11-08T19:29:02.621Z,71.27
2017-11-08T19:31:31.867Z,71.43
2017-11-08T19:34:02.085Z,71.43
2017-11-08T19:36:31.999Z,68.03
2017-11-08T19:39:00.862Z,67.27
2017-11-08T19:41:41.669Z,53.17
2017-11-08T19:44:13.046Z,46.30
2017-11-08T19:46:44.364Z,47.10
2017-11-08T19:49:13.039Z,44.00
2017-11-08T19:51:52.050Z,38.00
2017-11-08T19:54:27.201Z,40.13
2017-11-08T19:57:11.608Z,37.60
2017-11-08T19:59:42.760Z,40.00
2017-11-08T20:02:13.895Z,35.43
2017-11-08T20:04:46.107Z,29.73
2017-11-08T20:07:14.255Z,25.73
2017-11-08T20:09:41.953Z,28.17
2017-11-08T20:12:09.712Z,27.20
2017-11-08T20:14:40.030Z,25.80
2017-11-08T20:19:48.784Z,27.40
2017-11-08T20:22:23.170Z,28.77
2017-11-08T20:24:51.600Z,28.40
2017-11-08T20:27:19.983Z,27.90
2017-11-08T20:29:49.861Z,28.73
2017-11-08T20:32:19.695Z,29.00
2017-11-08T20:34:50.410Z,25.90
2017-11-08T20:37:20.036Z,25.83
2017-11-08T20:39:47.916Z,27.43
2017-11-08T20:42:15.465Z,25.57
2017-11-08T20:44:44.619Z,22.80
2017-11-08T20:47:16.323Z,25.53
2017-11-08T20:49:44.627Z,26.30
2017-11-08T20:52:12.906Z,27.17
2017-11-08T20:54:41.479Z,28.37
2017-11-08T20:57:09.092Z,28.30
2017-11-08T20:59:37.085Z,24.90
2017-11-08T21:02:13.892Z,23.33
2017-11-08T21:04:42.404Z,21.00
2017-11-08T21:07:13.533Z,25.50
2017-11-08T21:22:59.173Z,27.03
2017-11-08T21:25:29.867Z,28.30
2017-11-08T21:28:05.748Z,27.87
2017-11-08T21:30:40.890Z,30.73
2017-11-08T22:58:01.654Z,31.63
2017-11-08T23:06:13.638Z,29.23
2017-11-08T23:12:12.243Z,28.27
2017-11-08T23:14:41.980Z,32.10
2017-11-08T23:17:12.917Z,34.10
2017-11-08T23:19:41.971Z,36.77
2017-11-08T23:22:10.523Z,35.23
2017-11-08T23:24:40.812Z,36.10
2017-11-08T23:27:13.940Z,37.67
2017-11-08T23:36:43.538Z,52.37
2017-11-08T23:39:11.282Z,54.73
2017-11-08T23:41:57.374Z,51.77
2017-11-08T23:55:05.740Z,50.93
2017-11-08T23:57:34.495Z,50.63
